KEAU/EAU METAR and TAF weather

Enter ICAO airport designator
Station Type Date Time Source
KEAU METAR 2019/10/18 06:56 UTC NOAA

KEAU 180656Z AUTO 15004KT 10SM CLR 05/02 A2995 RMK AO2 SLP147 T00500017


Station Type Date Time Source
KEAU Decoded METAR 2019/10/18 06:56 UTC NOAA

EAU CLAIRE CHIPPEWA VALLEY, WI, United States (KEAU) 44-52N 091-29W
Oct 18, 2019 - 02:56 AM EDT / 2019.10.18 0656 UTC
Wind: from the SSE (150 degrees) at 5 MPH (4 KT):0
Visibility: 10 mile(s):0
Sky conditions: clear
Temperature: 41.0 F (5.0 C)
Dew Point: 35.1 F (1.7 C)
Relative Humidity: 79%
Pressure (altimeter): 29.95 in. Hg (1014 hPa)
ob: KEAU 180656Z AUTO 15004KT 10SM CLR 05/02 A2995 RMK AO2 SLP147 T00500017
cycle: 7

Station Type Date Time Source
KEAU TAF 2019/10/18 06:24 UTC NOAA

TAF KEAU 180522Z 1806/1906 13008KT P6SM FEW250
FM180900 14009KT P6SM SCT250
FM181500 14013G22KT P6SM BKN250
FM182000 15018G29KT P6SM FEW100 SCT250
FM190100 15013KT P6SM FEW250

Example: see airport list